sensor_id;sensor_type;location;lat;lon;timestamp;P1;durP1;ratioP1;P2;durP2;ratioP2
48026;SDS011;50714;49.208;5.364;2022-09-27T00:09:37;2.03;;;1.20;;
48026;SDS011;50714;49.208;5.364;2022-09-27T00:19:37;1.70;;;1.10;;
48026;SDS011;50714;49.208;5.364;2022-09-27T00:29:38;2.47;;;1.10;;
48026;SDS011;50714;49.208;5.364;2022-09-27T00:39:38;4.22;;;1.50;;
48026;SDS011;50714;49.208;5.364;2022-09-27T00:49:47;3.10;;;1.60;;
48026;SDS011;50714;49.208;5.364;2022-09-27T01:00:03;2.63;;;1.27;;
48026;SDS011;50714;49.208;5.364;2022-09-27T01:10:06;2.08;;;1.10;;
48026;SDS011;50714;49.208;5.364;2022-09-27T01:20:54;3.05;;;1.40;;
48026;SDS011;50714;49.208;5.364;2022-09-27T01:30:53;2.65;;;1.05;;
48026;SDS011;50714;49.208;5.364;2022-09-27T01:41:03;1.77;;;1.33;;
48026;SDS011;50714;49.208;5.364;2022-09-27T01:51:15;2.10;;;1.08;;
48026;SDS011;50714;49.208;5.364;2022-09-27T02:01:20;1.30;;;0.80;;
48026;SDS011;50714;49.208;5.364;2022-09-27T02:11:23;2.40;;;1.33;;
48026;SDS011;50714;49.208;5.364;2022-09-27T02:21:24;2.75;;;1.23;;
48026;SDS011;50714;49.208;5.364;2022-09-27T02:31:39;1.23;;;1.10;;
48026;SDS011;50714;49.208;5.364;2022-09-27T02:41:40;1.98;;;1.52;;
48026;SDS011;50714;49.208;5.364;2022-09-27T03:12:10;4.57;;;2.00;;
48026;SDS011;50714;49.208;5.364;2022-09-27T03:22:11;3.13;;;1.63;;
48026;SDS011;50714;49.208;5.364;2022-09-27T03:32:11;2.70;;;2.00;;
48026;SDS011;50714;49.208;5.364;2022-09-27T03:42:11;2.50;;;1.58;;
48026;SDS011;50714;49.208;5.364;2022-09-27T03:52:12;2.80;;;1.77;;
48026;SDS011;50714;49.208;5.364;2022-09-27T04:02:13;6.72;;;3.63;;
48026;SDS011;50714;49.208;5.364;2022-09-27T04:12:14;6.05;;;3.47;;
48026;SDS011;50714;49.208;5.364;2022-09-27T04:22:14;6.20;;;3.72;;
48026;SDS011;50714;49.208;5.364;2022-09-27T04:32:15;9.05;;;4.80;;
48026;SDS011;50714;49.208;5.364;2022-09-27T04:42:15;6.10;;;3.90;;
48026;SDS011;50714;49.208;5.364;2022-09-27T04:52:16;8.88;;;5.78;;
48026;SDS011;50714;49.208;5.364;2022-09-27T05:02:17;9.60;;;6.13;;
48026;SDS011;50714;49.208;5.364;2022-09-27T05:12:18;11.48;;;8.43;;
48026;SDS011;50714;49.208;5.364;2022-09-27T05:22:19;7.57;;;4.70;;
48026;SDS011;50714;49.208;5.364;2022-09-27T05:32:19;8.73;;;4.82;;
48026;SDS011;50714;49.208;5.364;2022-09-27T05:42:20;5.43;;;3.83;;
48026;SDS011;50714;49.208;5.364;2022-09-27T05:52:21;5.30;;;2.97;;
48026;SDS011;50714;49.208;5.364;2022-09-27T06:02:22;5.30;;;3.08;;
48026;SDS011;50714;49.208;5.364;2022-09-27T06:12:22;6.72;;;3.53;;
48026;SDS011;50714;49.208;5.364;2022-09-27T06:22:23;3.03;;;1.70;;
48026;SDS011;50714;49.208;5.364;2022-09-27T06:32:23;1.92;;;1.17;;
48026;SDS011;50714;49.208;5.364;2022-09-27T06:42:25;4.47;;;3.30;;
48026;SDS011;50714;49.208;5.364;2022-09-27T06:52:26;3.05;;;2.28;;
48026;SDS011;50714;49.208;5.364;2022-09-27T07:02:27;2.22;;;1.48;;
48026;SDS011;50714;49.208;5.364;2022-09-27T07:12:27;3.20;;;1.73;;
48026;SDS011;50714;49.208;5.364;2022-09-27T07:22:27;3.40;;;1.95;;
48026;SDS011;50714;49.208;5.364;2022-09-27T07:32:29;3.65;;;2.00;;
48026;SDS011;50714;49.208;5.364;2022-09-27T07:42:30;2.92;;;1.58;;
48026;SDS011;50714;49.208;5.364;2022-09-27T07:52:37;3.15;;;1.63;;
48026;SDS011;50714;49.208;5.364;2022-09-27T08:02:38;2.22;;;1.70;;
48026;SDS011;50714;49.208;5.364;2022-09-27T08:12:39;2.78;;;1.58;;
48026;SDS011;50714;49.208;5.364;2022-09-27T08:22:41;2.42;;;1.30;;
48026;SDS011;50714;49.208;5.364;2022-09-27T08:32:42;4.35;;;2.22;;
48026;SDS011;50714;49.208;5.364;2022-09-27T08:42:46;4.82;;;2.55;;
48026;SDS011;50714;49.208;5.364;2022-09-27T08:53:03;9.05;;;5.07;;
48026;SDS011;50714;49.208;5.364;2022-09-27T09:03:15;8.70;;;4.68;;
48026;SDS011;50714;49.208;5.364;2022-09-27T09:13:22;8.70;;;5.47;;
48026;SDS011;50714;49.208;5.364;2022-09-27T09:33:58;7.65;;;3.95;;
48026;SDS011;50714;49.208;5.364;2022-09-27T09:44:23;3.78;;;1.83;;
48026;SDS011;50714;49.208;5.364;2022-09-27T09:54:47;0.95;;;0.50;;
48026;SDS011;50714;49.208;5.364;2022-09-27T10:04:56;0.63;;;0.40;;
48026;SDS011;50714;49.208;5.364;2022-09-27T10:14:58;0.55;;;0.55;;
48026;SDS011;50714;49.208;5.364;2022-09-27T10:25:02;0.63;;;0.60;;
48026;SDS011;50714;49.208;5.364;2022-09-27T10:35:20;1.30;;;0.50;;
48026;SDS011;50714;49.208;5.364;2022-09-27T10:45:32;0.30;;;0.30;;
48026;SDS011;50714;49.208;5.364;2022-09-27T10:55:34;1.73;;;0.95;;
48026;SDS011;50714;49.208;5.364;2022-09-27T11:05:36;3.75;;;1.70;;
48026;SDS011;50714;49.208;5.364;2022-09-27T11:15:42;2.72;;;1.67;;
48026;SDS011;50714;49.208;5.364;2022-09-27T11:46:35;0.60;;;0.50;;
48026;SDS011;50714;49.208;5.364;2022-09-27T12:17:17;1.05;;;0.60;;
48026;SDS011;50714;49.208;5.364;2022-09-27T12:27:35;1.05;;;0.50;;
48026;SDS011;50714;49.208;5.364;2022-09-27T12:37:44;0.75;;;0.50;;
48026;SDS011;50714;49.208;5.364;2022-09-27T13:28:58;1.98;;;1.38;;
48026;SDS011;50714;49.208;5.364;2022-09-27T13:39:05;3.40;;;1.77;;
48026;SDS011;50714;49.208;5.364;2022-09-27T13:49:20;4.57;;;2.80;;
48026;SDS011;50714;49.208;5.364;2022-09-27T13:59:24;6.03;;;3.33;;
48026;SDS011;50714;49.208;5.364;2022-09-27T14:09:33;2.10;;;1.20;;
48026;SDS011;50714;49.208;5.364;2022-09-27T14:19:39;1.65;;;0.75;;
48026;SDS011;50714;49.208;5.364;2022-09-27T14:29:44;1.30;;;0.63;;
48026;SDS011;50714;49.208;5.364;2022-09-27T14:39:52;0.95;;;0.70;;
48026;SDS011;50714;49.208;5.364;2022-09-27T14:49:55;1.37;;;0.73;;
48026;SDS011;50714;49.208;5.364;2022-09-27T14:59:57;3.83;;;1.90;;
48026;SDS011;50714;49.208;5.364;2022-09-27T15:10:00;1.85;;;1.13;;
48026;SDS011;50714;49.208;5.364;2022-09-27T15:20:02;2.53;;;1.40;;
48026;SDS011;50714;49.208;5.364;2022-09-27T15:30:18;2.72;;;1.45;;
48026;SDS011;50714;49.208;5.364;2022-09-27T15:40:55;0.93;;;0.80;;
48026;SDS011;50714;49.208;5.364;2022-09-27T15:50:53;2.15;;;0.80;;
48026;SDS011;50714;49.208;5.364;2022-09-27T16:00:57;1.63;;;0.57;;
48026;SDS011;50714;49.208;5.364;2022-09-27T16:11:01;1.55;;;0.90;;
48026;SDS011;50714;49.208;5.364;2022-09-27T16:21:04;1.65;;;0.93;;
48026;SDS011;50714;49.208;5.364;2022-09-27T16:31:05;1.42;;;0.88;;
48026;SDS011;50714;49.208;5.364;2022-09-27T16:41:06;3.70;;;2.63;;
48026;SDS011;50714;49.208;5.364;2022-09-27T16:51:17;2.20;;;1.47;;
48026;SDS011;50714;49.208;5.364;2022-09-27T17:01:52;3.38;;;2.40;;
48026;SDS011;50714;49.208;5.364;2022-09-27T17:11:56;4.40;;;2.78;;
48026;SDS011;50714;49.208;5.364;2022-09-27T17:21:56;8.55;;;5.85;;
48026;SDS011;50714;49.208;5.364;2022-09-27T17:31:57;7.90;;;6.50;;
48026;SDS011;50714;49.208;5.364;2022-09-27T17:41:58;6.88;;;5.13;;
48026;SDS011;50714;49.208;5.364;2022-09-27T17:51:58;10.30;;;5.60;;
48026;SDS011;50714;49.208;5.364;2022-09-27T18:02:00;10.77;;;6.72;;
48026;SDS011;50714;49.208;5.364;2022-09-27T18:12:00;7.07;;;4.65;;
48026;SDS011;50714;49.208;5.364;2022-09-27T18:22:01;11.40;;;8.23;;
48026;SDS011;50714;49.208;5.364;2022-09-27T18:32:02;4.55;;;2.80;;
48026;SDS011;50714;49.208;5.364;2022-09-27T18:42:03;1.50;;;0.70;;
48026;SDS011;50714;49.208;5.364;2022-09-27T18:52:03;1.47;;;0.77;;
48026;SDS011;50714;49.208;5.364;2022-09-27T19:02:04;2.35;;;1.20;;
48026;SDS011;50714;49.208;5.364;2022-09-27T19:12:04;2.80;;;1.38;;
48026;SDS011;50714;49.208;5.364;2022-09-27T19:22:05;13.93;;;9.95;;
48026;SDS011;50714;49.208;5.364;2022-09-27T19:32:05;8.38;;;5.50;;
48026;SDS011;50714;49.208;5.364;2022-09-27T19:42:05;5.88;;;3.10;;
48026;SDS011;50714;49.208;5.364;2022-09-27T19:52:07;6.70;;;3.40;;
48026;SDS011;50714;49.208;5.364;2022-09-27T20:02:08;5.57;;;2.58;;
48026;SDS011;50714;49.208;5.364;2022-09-27T20:12:09;13.55;;;7.78;;
48026;SDS011;50714;49.208;5.364;2022-09-27T20:22:09;4.80;;;3.00;;
48026;SDS011;50714;49.208;5.364;2022-09-27T20:32:09;6.50;;;3.30;;
48026;SDS011;50714;49.208;5.364;2022-09-27T20:42:10;4.18;;;1.73;;
48026;SDS011;50714;49.208;5.364;2022-09-27T20:52:10;2.55;;;1.65;;
48026;SDS011;50714;49.208;5.364;2022-09-27T21:02:11;4.25;;;2.20;;
48026;SDS011;50714;49.208;5.364;2022-09-27T21:12:11;14.35;;;8.43;;
48026;SDS011;50714;49.208;5.364;2022-09-27T21:22:11;9.50;;;8.00;;
48026;SDS011;50714;49.208;5.364;2022-09-27T21:32:13;8.90;;;7.38;;
48026;SDS011;50714;49.208;5.364;2022-09-27T21:42:14;5.25;;;3.90;;
48026;SDS011;50714;49.208;5.364;2022-09-27T21:52:14;3.40;;;2.33;;
48026;SDS011;50714;49.208;5.364;2022-09-27T22:02:16;6.47;;;4.53;;
48026;SDS011;50714;49.208;5.364;2022-09-27T22:12:18;7.07;;;4.05;;
48026;SDS011;50714;49.208;5.364;2022-09-27T22:22:18;4.97;;;2.97;;
48026;SDS011;50714;49.208;5.364;2022-09-27T22:32:19;4.50;;;2.60;;
48026;SDS011;50714;49.208;5.364;2022-09-27T22:42:19;2.75;;;1.80;;
48026;SDS011;50714;49.208;5.364;2022-09-27T22:52:21;2.80;;;1.70;;
48026;SDS011;50714;49.208;5.364;2022-09-27T23:02:21;4.45;;;2.40;;
48026;SDS011;50714;49.208;5.364;2022-09-27T23:12:22;4.75;;;2.47;;
48026;SDS011;50714;49.208;5.364;2022-09-27T23:22:22;5.00;;;2.92;;
48026;SDS011;50714;49.208;5.364;2022-09-27T23:32:23;4.72;;;2.30;;
48026;SDS011;50714;49.208;5.364;2022-09-27T23:42:23;6.13;;;2.65;;
48026;SDS011;50714;49.208;5.364;2022-09-27T23:52:23;8.40;;;3.67;;
